createdAt,value
2018-11-29T00:00:26.624Z,2.41
2018-11-29T00:00:57.735Z,2.36
2018-11-29T00:01:28.846Z,2.33
2018-11-29T00:01:59.977Z,2.30
2018-11-29T00:02:31.124Z,2.31
2018-11-29T00:03:02.232Z,2.26
2018-11-29T00:03:33.345Z,2.23
2018-11-29T00:04:04.531Z,2.26
2018-11-29T00:04:35.648Z,2.27
2018-11-29T00:05:06.768Z,2.27
2018-11-29T00:05:37.876Z,2.28
2018-11-29T00:06:08.999Z,2.28
2018-11-29T00:06:40.109Z,2.30
2018-11-29T00:07:11.908Z,2.30
2018-11-29T00:07:43.136Z,2.30
2018-11-29T00:08:14.265Z,2.28
2018-11-29T00:08:45.392Z,2.28
2018-11-29T00:09:16.501Z,2.25
2018-11-29T00:09:47.622Z,2.15
2018-11-29T00:10:18.789Z,2.12
2018-11-29T00:10:49.900Z,2.24
2018-11-29T00:11:21.020Z,2.32
2018-11-29T00:11:52.136Z,2.34
2018-11-29T00:12:23.240Z,2.33
2018-11-29T00:12:54.395Z,2.34
2018-11-29T00:13:25.553Z,2.32
2018-11-29T00:13:56.694Z,2.31
2018-11-29T00:14:27.799Z,2.36
2018-11-29T00:14:59.833Z,2.37
2018-11-29T00:15:30.970Z,2.39
2018-11-29T00:16:02.084Z,2.39
2018-11-29T00:16:33.196Z,2.45
2018-11-29T00:17:04.315Z,2.50
2018-11-29T00:17:35.424Z,2.63
2018-11-29T00:18:06.578Z,2.68
2018-11-29T00:18:37.682Z,2.69
2018-11-29T00:19:08.841Z,2.69
2018-11-29T00:19:39.975Z,2.68
2018-11-29T00:20:11.083Z,2.66
2018-11-29T00:20:42.248Z,2.71
2018-11-29T00:21:13.360Z,2.69
2018-11-29T00:21:44.501Z,2.67
2018-11-29T00:22:15.624Z,2.68
2018-11-29T00:22:46.746Z,2.69
2018-11-29T00:23:17.852Z,2.67
2018-11-29T00:23:48.964Z,2.65
2018-11-29T00:24:20.084Z,2.63
2018-11-29T00:24:51.197Z,2.67
2018-11-29T00:25:22.320Z,2.66
2018-11-29T00:25:53.464Z,2.62
2018-11-29T00:26:24.583Z,2.59
2018-11-29T00:26:55.707Z,2.55
2018-11-29T00:27:26.814Z,2.46
2018-11-29T00:27:57.929Z,2.44
2018-11-29T00:28:29.048Z,2.39
2018-11-29T00:29:00.176Z,2.37
2018-11-29T00:29:31.300Z,2.34
2018-11-29T00:30:02.400Z,2.34
2018-11-29T00:30:33.516Z,2.34
2018-11-29T00:31:04.664Z,2.34
2018-11-29T00:31:35.781Z,2.31
2018-11-29T00:32:06.895Z,2.32
2018-11-29T00:32:38.024Z,2.30
2018-11-29T00:33:09.145Z,2.27
2018-11-29T00:33:40.256Z,2.25
2018-11-29T00:34:11.402Z,2.28
2018-11-29T00:34:42.511Z,2.28
2018-11-29T00:35:13.612Z,2.28
2018-11-29T00:35:44.719Z,2.27
2018-11-29T00:36:15.840Z,2.28
2018-11-29T00:36:46.992Z,2.30
2018-11-29T00:37:18.148Z,2.30
2018-11-29T00:37:49.260Z,2.33
2018-11-29T00:38:20.396Z,2.40
2018-11-29T00:38:51.536Z,2.47
2018-11-29T00:39:22.650Z,2.48
2018-11-29T00:39:53.773Z,2.44
2018-11-29T00:40:24.885Z,2.51
2018-11-29T00:40:56.000Z,2.53
2018-11-29T00:41:27.117Z,2.49
2018-11-29T00:41:58.241Z,2.46
2018-11-29T00:42:29.347Z,2.42
2018-11-29T00:43:00.499Z,2.40
2018-11-29T00:43:31.607Z,2.39
2018-11-29T00:44:02.715Z,2.36
2018-11-29T00:44:33.831Z,2.38
2018-11-29T00:45:04.950Z,2.36
2018-11-29T00:45:36.068Z,2.32
2018-11-29T00:46:07.183Z,2.30
2018-11-29T00:46:38.289Z,2.29
2018-11-29T00:47:09.411Z,2.24
2018-11-29T00:47:40.561Z,2.26
2018-11-29T00:48:11.672Z,2.25
2018-11-29T00:48:42.801Z,2.28
2018-11-29T00:49:14.418Z,2.31
2018-11-29T00:49:45.534Z,2.34
2018-11-29T00:50:16.716Z,2.34
2018-11-29T00:50:47.868Z,2.33
2018-11-29T00:51:18.992Z,2.30
2018-11-29T00:51:50.112Z,2.27
2018-11-29T00:52:21.226Z,2.27
2018-11-29T00:52:52.372Z,2.27
2018-11-29T00:53:23.471Z,2.26
2018-11-29T00:53:54.586Z,2.19
2018-11-29T00:54:25.692Z,2.10
2018-11-29T00:54:56.812Z,2.08
2018-11-29T00:55:27.939Z,2.05
2018-11-29T00:55:59.035Z,2.07
2018-11-29T00:56:30.141Z,2.06
2018-11-29T00:57:02.149Z,2.07
2018-11-29T00:57:33.303Z,2.10
2018-11-29T00:58:04.460Z,2.15
2018-11-29T00:58:36.189Z,2.15
2018-11-29T00:59:07.591Z,2.15
2018-11-29T00:59:38.709Z,2.16
2018-11-29T01:00:10.221Z,2.15
2018-11-29T01:00:41.381Z,2.15
2018-11-29T01:01:12.488Z,2.17
2018-11-29T01:01:43.600Z,2.17
2018-11-29T01:02:14.717Z,2.17
2018-11-29T01:02:45.828Z,2.17
2018-11-29T01:03:16.936Z,2.17
2018-11-29T01:03:48.043Z,2.16
2018-11-29T01:04:19.145Z,2.15
2018-11-29T01:04:50.252Z,2.14
2018-11-29T01:05:21.400Z,2.14
2018-11-29T01:05:52.521Z,2.08
2018-11-29T01:06:23.638Z,2.08
2018-11-29T01:06:54.748Z,2.05
2018-11-29T01:07:25.859Z,2.03
2018-11-29T01:07:56.962Z,2.02
2018-11-29T01:08:28.068Z,2.01
2018-11-29T01:08:59.183Z,2.00
2018-11-29T01:09:30.296Z,2.00
2018-11-29T01:10:01.412Z,2.00
2018-11-29T01:10:32.567Z,2.07
2018-11-29T01:11:03.671Z,2.05
2018-11-29T01:11:34.795Z,2.03
2018-11-29T01:12:05.947Z,2.03
2018-11-29T01:12:37.059Z,2.01
2018-11-29T01:13:08.168Z,2.00
2018-11-29T01:13:39.283Z,2.00
2018-11-29T01:14:10.408Z,2.00
2018-11-29T01:14:41.507Z,2.02
2018-11-29T01:15:13.193Z,2.03
2018-11-29T01:15:44.310Z,2.05
2018-11-29T01:16:15.432Z,2.06
2018-11-29T01:16:46.536Z,2.13
2018-11-29T01:17:17.693Z,2.16
2018-11-29T01:17:48.816Z,2.17
2018-11-29T01:18:19.928Z,2.14
2018-11-29T01:18:51.042Z,2.11
2018-11-29T01:19:22.154Z,2.08
2018-11-29T01:19:53.261Z,2.04
2018-11-29T01:20:24.372Z,2.01
2018-11-29T01:20:55.493Z,2.00
2018-11-29T01:21:26.603Z,1.99
2018-11-29T01:21:57.709Z,1.99
2018-11-29T01:22:28.865Z,1.98
2018-11-29T01:23:00.024Z,1.93
2018-11-29T01:23:31.142Z,1.89
2018-11-29T01:24:02.252Z,1.86
2018-11-29T01:24:33.355Z,1.83
2018-11-29T01:25:04.485Z,1.83
2018-11-29T01:25:35.614Z,1.82
2018-11-29T01:26:06.735Z,1.80
2018-11-29T01:26:37.848Z,1.78
2018-11-29T01:27:08.985Z,1.73
2018-11-29T01:27:40.084Z,1.68
2018-11-29T01:28:11.225Z,1.68
2018-11-29T01:28:42.333Z,1.65
2018-11-29T01:29:13.448Z,1.66
2018-11-29T01:29:44.578Z,1.70
2018-11-29T01:30:15.699Z,1.78
2018-11-29T01:30:46.819Z,1.82
2018-11-29T01:31:17.936Z,1.85
2018-11-29T01:31:49.042Z,1.84
2018-11-29T01:32:20.962Z,1.81
2018-11-29T01:32:52.076Z,1.76
2018-11-29T01:33:23.225Z,1.77
2018-11-29T01:33:54.336Z,1.72
2018-11-29T01:34:25.453Z,1.72
2018-11-29T01:34:56.568Z,1.71
2018-11-29T01:35:27.687Z,1.71
2018-11-29T01:35:58.797Z,1.70
2018-11-29T01:36:29.917Z,1.69
2018-11-29T01:37:01.032Z,1.67
2018-11-29T01:37:32.168Z,1.64
2018-11-29T01:38:03.300Z,1.63
2018-11-29T01:38:34.448Z,1.59
2018-11-29T01:39:05.558Z,1.57
2018-11-29T01:39:36.680Z,1.60
2018-11-29T01:40:07.812Z,1.62
2018-11-29T01:40:38.917Z,1.61
2018-11-29T01:41:10.025Z,1.62
2018-11-29T01:41:41.149Z,1.62
2018-11-29T01:42:12.254Z,1.64
2018-11-29T01:42:43.362Z,1.67
2018-11-29T01:43:14.506Z,1.67
2018-11-29T01:43:45.630Z,1.63
2018-11-29T01:44:16.729Z,1.74
2018-11-29T01:44:47.841Z,1.74
2018-11-29T01:45:18.961Z,1.71
2018-11-29T01:45:50.073Z,1.70
2018-11-29T01:46:21.512Z,1.69
2018-11-29T01:46:52.633Z,1.68
2018-11-29T01:47:23.790Z,1.75
2018-11-29T01:47:54.900Z,1.78
2018-11-29T01:48:26.044Z,1.75
2018-11-29T01:48:57.183Z,1.62
2018-11-29T01:49:28.350Z,1.63
2018-11-29T01:49:59.466Z,1.65
2018-11-29T01:50:30.580Z,1.69
2018-11-29T01:51:01.697Z,1.73
2018-11-29T01:51:32.807Z,1.72
2018-11-29T01:52:03.927Z,1.71
2018-11-29T01:52:35.036Z,1.64
2018-11-29T01:53:06.281Z,1.62
2018-11-29T01:53:38.304Z,1.64
2018-11-29T01:54:09.421Z,1.92
2018-11-29T01:54:40.540Z,1.95
2018-11-29T01:55:11.648Z,1.90
2018-11-29T01:55:42.760Z,1.80
2018-11-29T01:56:13.890Z,1.73
2018-11-29T01:56:44.984Z,1.69
2018-11-29T01:57:16.098Z,1.67
2018-11-29T01:57:47.206Z,1.65
2018-11-29T01:58:18.364Z,1.62
2018-11-29T01:58:49.472Z,1.61
2018-11-29T01:59:20.585Z,1.57
2018-11-29T01:59:51.697Z,1.63
2018-11-29T02:00:22.793Z,1.66
2018-11-29T02:00:53.896Z,1.67
2018-11-29T02:01:25.050Z,1.66
2018-11-29T02:01:56.159Z,1.64
2018-11-29T02:02:27.270Z,1.67
2018-11-29T02:02:58.380Z,1.70
2018-11-29T02:03:29.561Z,1.69
2018-11-29T02:04:00.676Z,1.69
2018-11-29T02:04:31.785Z,1.71
2018-11-29T02:05:02.898Z,1.68
2018-11-29T02:05:34.028Z,1.70
2018-11-29T02:06:05.148Z,1.75
2018-11-29T02:06:36.292Z,1.78
2018-11-29T02:07:07.413Z,1.76
2018-11-29T02:07:38.523Z,1.76
2018-11-29T02:08:09.666Z,1.81
2018-11-29T02:08:40.808Z,1.80
2018-11-29T02:09:11.916Z,1.77
2018-11-29T02:09:43.033Z,1.81
2018-11-29T02:10:14.151Z,1.79
2018-11-29T02:10:45.273Z,1.80
2018-11-29T02:11:16.385Z,1.79
2018-11-29T02:11:47.496Z,1.75
2018-11-29T02:12:18.611Z,1.73
2018-11-29T02:12:49.747Z,1.71
2018-11-29T02:13:20.855Z,1.70
2018-11-29T02:13:52.008Z,1.69
2018-11-29T02:14:23.165Z,1.68
2018-11-29T02:14:54.304Z,1.76
2018-11-29T02:15:25.420Z,1.91
2018-11-29T02:15:56.536Z,1.93
2018-11-29T02:16:27.644Z,1.93
2018-11-29T02:16:58.755Z,1.88
2018-11-29T02:17:29.860Z,1.93
2018-11-29T02:18:01.020Z,1.96
2018-11-29T02:18:32.145Z,2.03
2018-11-29T02:19:03.256Z,2.01
2018-11-29T02:19:34.431Z,1.98
2018-11-29T02:20:05.548Z,1.95
2018-11-29T02:20:36.707Z,1.96
2018-11-29T02:21:07.835Z,1.92
2018-11-29T02:21:38.939Z,1.91
2018-11-29T02:22:10.048Z,1.89
2018-11-29T02:22:41.191Z,1.88
2018-11-29T02:23:12.316Z,1.88
2018-11-29T02:23:43.421Z,1.92
2018-11-29T02:24:14.534Z,2.19
2018-11-29T02:24:45.692Z,2.47
2018-11-29T02:25:16.810Z,2.78
2018-11-29T02:25:47.956Z,2.77
2018-11-29T02:26:19.099Z,2.62
2018-11-29T02:26:51.066Z,2.50
2018-11-29T02:27:22.180Z,2.46
2018-11-29T02:27:53.326Z,2.37
2018-11-29T02:28:24.432Z,2.32
2018-11-29T02:28:55.578Z,2.22
2018-11-29T02:29:26.692Z,2.22
2018-11-29T02:29:57.884Z,1.74
2018-11-29T02:30:29.037Z,2.37
2018-11-29T02:31:00.193Z,2.37
2018-11-29T02:31:31.304Z,2.38
2018-11-29T02:32:02.423Z,2.33
2018-11-29T02:32:33.583Z,2.28
2018-11-29T02:33:04.696Z,2.23
2018-11-29T02:33:35.817Z,2.19
2018-11-29T02:34:06.967Z,2.15
2018-11-29T02:34:38.126Z,2.13
2018-11-29T02:35:09.237Z,2.09
2018-11-29T02:35:40.344Z,2.06
2018-11-29T02:36:11.498Z,2.23
2018-11-29T02:36:42.645Z,2.34
2018-11-29T02:37:13.759Z,2.35
2018-11-29T02:37:44.878Z,2.31
2018-11-29T02:38:15.975Z,2.26
2018-11-29T02:38:47.087Z,2.14
2018-11-29T02:39:18.218Z,2.08
2018-11-29T02:39:49.327Z,2.05
2018-11-29T02:40:20.474Z,2.07
2018-11-29T02:40:51.589Z,2.05
2018-11-29T02:41:22.706Z,2.04
2018-11-29T02:41:53.814Z,2.00
2018-11-29T02:42:24.977Z,1.98
2018-11-29T02:42:56.102Z,1.94
2018-11-29T02:43:27.211Z,1.95
2018-11-29T02:43:58.320Z,1.88
2018-11-29T02:44:29.475Z,1.85
2018-11-29T02:45:00.601Z,1.85
2018-11-29T02:45:31.719Z,1.89
2018-11-29T02:46:02.827Z,2.14
2018-11-29T02:46:33.972Z,2.19
2018-11-29T02:47:05.077Z,2.23
2018-11-29T02:47:36.176Z,2.29
2018-11-29T02:48:07.284Z,2.47
2018-11-29T02:48:38.399Z,2.55
2018-11-29T02:49:09.520Z,2.54
2018-11-29T02:49:40.639Z,2.54
2018-11-29T02:50:11.799Z,2.53
2018-11-29T02:50:42.953Z,2.45
2018-11-29T02:51:14.084Z,2.39
2018-11-29T02:51:45.211Z,2.31
2018-11-29T02:52:16.337Z,2.24
2018-11-29T02:52:47.447Z,2.16
2018-11-29T02:53:18.556Z,2.09
2018-11-29T02:53:49.670Z,1.99
2018-11-29T02:54:20.776Z,1.90
2018-11-29T02:54:51.881Z,1.90
2018-11-29T02:55:22.987Z,1.89
2018-11-29T02:55:54.153Z,1.87
2018-11-29T02:56:25.256Z,1.80
2018-11-29T02:56:56.437Z,1.77
2018-11-29T02:57:28.286Z,1.82
2018-11-29T02:57:59.399Z,1.86
2018-11-29T02:58:30.547Z,1.82
2018-11-29T02:59:01.693Z,1.77
2018-11-29T02:59:32.805Z,1.76
2018-11-29T03:00:03.912Z,1.75
2018-11-29T03:00:35.019Z,1.71
2018-11-29T03:01:06.184Z,1.66
2018-11-29T03:01:37.296Z,1.69
2018-11-29T03:02:08.404Z,1.66
2018-11-29T03:02:39.514Z,1.63
2018-11-29T03:03:10.620Z,1.57
2018-11-29T03:03:41.730Z,1.54
2018-11-29T03:04:12.837Z,1.64
2018-11-29T03:04:43.940Z,1.69
2018-11-29T03:05:15.084Z,1.71
2018-11-29T03:05:46.200Z,1.70
2018-11-29T03:06:17.358Z,1.73
2018-11-29T03:06:48.468Z,1.69
2018-11-29T03:07:19.583Z,1.69
2018-11-29T03:07:50.744Z,1.67
2018-11-29T03:08:21.849Z,1.65
2018-11-29T03:08:52.994Z,1.61
2018-11-29T03:09:24.108Z,1.62
2018-11-29T03:09:55.212Z,1.59
2018-11-29T03:10:26.331Z,1.56
2018-11-29T03:10:57.436Z,1.54
2018-11-29T03:11:28.583Z,1.58
2018-11-29T03:11:59.692Z,1.66
2018-11-29T03:12:30.800Z,1.68
2018-11-29T03:13:01.910Z,1.71
2018-11-29T03:13:33.020Z,1.75
2018-11-29T03:14:04.125Z,1.86
2018-11-29T03:14:35.238Z,2.01
2018-11-29T03:15:06.340Z,2.07
2018-11-29T03:15:37.508Z,2.19
2018-11-29T03:16:08.629Z,2.42
2018-11-29T03:16:39.739Z,2.68
2018-11-29T03:17:10.861Z,2.93
2018-11-29T03:17:42.018Z,2.98
2018-11-29T03:18:13.141Z,2.89
2018-11-29T03:18:44.281Z,2.80
2018-11-29T03:19:15.429Z,2.68
2018-11-29T03:19:46.540Z,2.60
2018-11-29T03:20:17.657Z,2.53
2018-11-29T03:20:48.775Z,2.44
2018-11-29T03:21:19.888Z,2.43
2018-11-29T03:21:51.053Z,2.39
2018-11-29T03:22:22.156Z,2.46
2018-11-29T03:22:53.260Z,2.60
2018-11-29T03:23:24.381Z,2.72
2018-11-29T03:23:55.491Z,2.76
2018-11-29T03:24:26.615Z,2.73
2018-11-29T03:24:57.732Z,2.74
2018-11-29T03:25:28.854Z,2.77
2018-11-29T03:25:59.963Z,2.78
2018-11-29T03:26:31.065Z,2.75
2018-11-29T03:27:02.219Z,2.73
2018-11-29T03:27:33.329Z,2.70
2018-11-29T03:28:04.456Z,2.63
2018-11-29T03:28:35.572Z,2.50
2018-11-29T03:29:06.681Z,2.44
2018-11-29T03:29:37.796Z,2.39
2018-11-29T03:30:08.910Z,2.38
2018-11-29T03:30:40.024Z,2.35
2018-11-29T03:31:11.232Z,2.29
2018-11-29T03:31:42.321Z,2.37
2018-11-29T03:32:13.487Z,2.47
2018-11-29T03:32:44.674Z,2.54
2018-11-29T03:33:15.846Z,2.50
2018-11-29T03:33:46.986Z,2.44
2018-11-29T03:34:18.150Z,2.45
2018-11-29T03:34:49.263Z,2.42
2018-11-29T03:35:20.379Z,2.39
2018-11-29T03:35:51.494Z,2.35
2018-11-29T03:36:22.618Z,2.34
2018-11-29T03:36:53.723Z,2.34
2018-11-29T03:37:24.843Z,2.30
2018-11-29T03:37:55.957Z,2.23
2018-11-29T03:38:27.130Z,2.19
2018-11-29T03:38:58.249Z,2.13
2018-11-29T03:39:29.360Z,2.17
2018-11-29T03:40:00.493Z,2.32
2018-11-29T03:40:31.608Z,2.35
2018-11-29T03:41:02.725Z,2.31
2018-11-29T03:41:33.843Z,2.27
2018-11-29T03:42:04.955Z,2.30
2018-11-29T03:42:36.062Z,2.31
2018-11-29T03:43:07.166Z,2.30
2018-11-29T03:43:38.323Z,2.30
2018-11-29T03:44:09.431Z,2.28
2018-11-29T03:44:40.591Z,2.23
2018-11-29T03:45:11.713Z,2.17
2018-11-29T03:45:42.849Z,2.13
2018-11-29T03:46:13.971Z,2.08
2018-11-29T03:46:45.134Z,2.03
2018-11-29T03:47:16.248Z,2.01
2018-11-29T03:47:47.399Z,1.97
2018-11-29T03:48:18.513Z,1.94
2018-11-29T03:48:49.637Z,1.93
2018-11-29T03:49:20.757Z,2.03
2018-11-29T03:49:51.868Z,2.05
2018-11-29T03:50:22.982Z,2.02
2018-11-29T03:50:54.120Z,2.10
2018-11-29T03:51:26.348Z,2.27
2018-11-29T03:51:57.452Z,2.33
2018-11-29T03:52:28.577Z,2.48
2018-11-29T03:52:59.738Z,2.49
2018-11-29T03:53:30.852Z,2.49
2018-11-29T03:54:01.960Z,2.45
2018-11-29T03:54:33.082Z,2.37
2018-11-29T03:55:04.197Z,2.35
2018-11-29T03:55:35.310Z,2.29
2018-11-29T03:56:06.415Z,2.24
2018-11-29T03:56:37.537Z,2.15
2018-11-29T03:57:08.651Z,2.10
2018-11-29T03:57:39.768Z,2.05
2018-11-29T03:58:10.912Z,1.97
2018-11-29T03:58:42.014Z,1.89
2018-11-29T03:59:13.121Z,1.85
2018-11-29T03:59:44.256Z,1.87
2018-11-29T04:00:15.378Z,1.84
2018-11-29T04:00:46.553Z,1.83
2018-11-29T04:01:17.665Z,1.82
2018-11-29T04:01:48.821Z,1.81
2018-11-29T04:02:19.954Z,1.78
2018-11-29T04:02:51.081Z,1.74
2018-11-29T04:03:22.231Z,1.74
2018-11-29T04:03:53.341Z,1.73
2018-11-29T04:04:26.211Z,1.72
2018-11-29T04:04:57.368Z,1.68
2018-11-29T04:05:28.511Z,1.76
2018-11-29T04:05:59.668Z,1.81
2018-11-29T04:06:30.793Z,1.83
2018-11-29T04:07:01.933Z,1.79
2018-11-29T04:07:33.045Z,1.77
2018-11-29T04:08:04.156Z,1.74
2018-11-29T04:08:35.271Z,1.69
2018-11-29T04:09:06.378Z,1.66
2018-11-29T04:09:37.484Z,1.65
2018-11-29T04:10:08.601Z,1.61
2018-11-29T04:10:39.715Z,1.61
2018-11-29T04:11:10.832Z,1.56
2018-11-29T04:11:41.946Z,1.57
2018-11-29T04:12:13.084Z,1.59
2018-11-29T04:12:44.198Z,1.59
2018-11-29T04:13:15.335Z,1.59
2018-11-29T04:13:46.480Z,1.59
2018-11-29T04:14:18.387Z,1.59
2018-11-29T04:14:49.503Z,1.59
2018-11-29T04:15:20.634Z,1.60
2018-11-29T04:15:51.745Z,1.58
2018-11-29T04:16:22.862Z,1.59
2018-11-29T04:16:53.995Z,1.58
2018-11-29T04:17:25.109Z,1.57
2018-11-29T04:17:56.264Z,1.56
2018-11-29T04:18:27.385Z,1.56
2018-11-29T04:18:58.522Z,1.58
2018-11-29T04:19:29.656Z,1.58
2018-11-29T04:20:00.776Z,1.57
2018-11-29T04:20:31.886Z,1.57
2018-11-29T04:21:03.006Z,1.54
2018-11-29T04:21:34.111Z,1.56
2018-11-29T04:22:05.219Z,1.57
2018-11-29T04:22:36.358Z,1.59
2018-11-29T04:23:07.500Z,1.68
2018-11-29T04:23:38.638Z,1.72
2018-11-29T04:24:09.797Z,1.71
2018-11-29T04:24:40.900Z,1.72
2018-11-29T04:25:12.016Z,1.72
2018-11-29T04:25:43.132Z,1.73
2018-11-29T04:26:14.257Z,1.70
2018-11-29T04:26:45.361Z,1.68
2018-11-29T04:27:16.467Z,1.65
2018-11-29T04:27:47.581Z,1.63
2018-11-29T04:28:18.737Z,1.59
2018-11-29T04:28:50.722Z,1.58
2018-11-29T04:29:21.837Z,1.55
2018-11-29T04:29:52.957Z,1.51
2018-11-29T04:30:24.066Z,1.51
2018-11-29T04:30:55.187Z,1.50
2018-11-29T04:31:26.298Z,1.50
2018-11-29T04:31:57.418Z,1.49
2018-11-29T04:32:28.532Z,1.46
2018-11-29T04:32:59.643Z,1.44
2018-11-29T04:33:30.790Z,1.43
2018-11-29T04:34:01.896Z,1.41
2018-11-29T04:34:33.015Z,1.46
2018-11-29T04:35:04.119Z,1.48
2018-11-29T04:35:35.227Z,1.46
2018-11-29T04:36:06.334Z,1.50
2018-11-29T04:36:37.444Z,1.49
2018-11-29T04:37:08.560Z,1.49
2018-11-29T04:37:39.683Z,1.47
2018-11-29T04:38:10.846Z,1.47
2018-11-29T04:38:41.957Z,1.52
2018-11-29T04:39:13.069Z,1.64
2018-11-29T04:39:44.202Z,1.84
2018-11-29T04:40:15.339Z,1.85
2018-11-29T04:40:46.445Z,1.88
2018-11-29T04:41:17.810Z,1.83
2018-11-29T04:41:48.912Z,1.78
2018-11-29T04:42:20.025Z,1.74
2018-11-29T04:42:51.128Z,1.71
2018-11-29T04:43:22.244Z,1.66
2018-11-29T04:43:53.358Z,1.62
2018-11-29T04:44:24.459Z,1.61
2018-11-29T04:44:55.571Z,1.61
2018-11-29T04:45:26.725Z,1.60
2018-11-29T04:45:57.845Z,1.62
2018-11-29T04:46:28.965Z,1.61
2018-11-29T04:47:00.150Z,1.61
2018-11-29T04:47:31.261Z,1.57
2018-11-29T04:48:02.365Z,1.54
2018-11-29T04:48:33.527Z,1.53
2018-11-29T04:49:04.650Z,1.54
2018-11-29T04:49:35.766Z,1.58
2018-11-29T04:50:06.885Z,1.57
2018-11-29T04:50:38.040Z,1.55
2018-11-29T04:51:09.152Z,1.53
2018-11-29T04:51:40.275Z,1.52
2018-11-29T04:52:11.405Z,1.48
2018-11-29T04:52:42.519Z,1.46
2018-11-29T04:53:13.632Z,1.48
2018-11-29T04:53:44.761Z,1.44
2018-11-29T04:54:15.881Z,1.42
2018-11-29T04:54:47.027Z,1.42
2018-11-29T04:55:18.134Z,1.42
2018-11-29T04:55:49.251Z,1.41
2018-11-29T04:56:20.372Z,1.40
2018-11-29T04:56:51.497Z,1.38
2018-11-29T04:57:22.668Z,1.36
2018-11-29T04:57:53.804Z,1.38
2018-11-29T04:58:24.919Z,1.40
2018-11-29T04:58:56.049Z,1.42
2018-11-29T04:59:27.161Z,1.39
2018-11-29T04:59:58.265Z,1.41
2018-11-29T05:00:29.372Z,1.39
2018-11-29T05:01:00.516Z,1.40
2018-11-29T05:01:31.630Z,1.41
2018-11-29T05:02:02.740Z,1.39
2018-11-29T05:02:33.849Z,1.38
2018-11-29T05:03:04.965Z,1.34
2018-11-29T05:03:36.075Z,1.34
2018-11-29T05:04:07.199Z,1.31
2018-11-29T05:04:38.378Z,1.31
2018-11-29T05:05:09.500Z,1.32
2018-11-29T05:05:40.621Z,1.33
2018-11-29T05:06:11.769Z,1.32
2018-11-29T05:06:42.884Z,1.31
2018-11-29T05:07:13.989Z,1.29
2018-11-29T05:07:45.111Z,1.27
2018-11-29T05:08:16.239Z,1.26
2018-11-29T05:08:47.364Z,1.25
2018-11-29T05:09:18.481Z,1.29
2018-11-29T05:09:49.631Z,1.26
2018-11-29T05:10:20.737Z,1.26
2018-11-29T05:10:51.853Z,1.28
2018-11-29T05:11:22.973Z,1.26
2018-11-29T05:11:54.153Z,1.24
2018-11-29T05:12:25.274Z,1.25
2018-11-29T05:12:56.381Z,1.22
2018-11-29T05:13:27.490Z,1.18
2018-11-29T05:13:58.592Z,1.23
2018-11-29T05:14:29.724Z,1.34
2018-11-29T05:15:00.882Z,1.39
2018-11-29T05:15:32.029Z,1.43
2018-11-29T05:16:03.149Z,1.40
2018-11-29T05:16:34.262Z,1.36
2018-11-29T05:17:05.376Z,1.19
2018-11-29T05:17:36.485Z,1.34
2018-11-29T05:18:07.601Z,1.30
2018-11-29T05:18:38.713Z,1.28
2018-11-29T05:19:09.839Z,1.26
2018-11-29T05:19:40.958Z,1.27
2018-11-29T05:20:12.136Z,1.26
2018-11-29T05:20:43.285Z,1.23
2018-11-29T05:21:14.398Z,1.26
2018-11-29T05:21:45.509Z,1.26
2018-11-29T05:22:16.624Z,1.28
2018-11-29T05:22:47.743Z,1.32
2018-11-29T05:23:18.851Z,1.34
2018-11-29T05:23:49.960Z,1.40
2018-11-29T05:24:21.081Z,1.38
2018-11-29T05:24:52.201Z,1.36
2018-11-29T05:25:23.310Z,1.33
2018-11-29T05:25:54.482Z,1.32
2018-11-29T05:26:27.878Z,1.29
2018-11-29T05:26:59.029Z,1.28
2018-11-29T05:27:30.534Z,1.28
2018-11-29T05:28:01.665Z,1.29
2018-11-29T05:28:32.876Z,1.30
2018-11-29T05:29:04.004Z,1.29
2018-11-29T05:29:35.109Z,1.30
2018-11-29T05:30:06.224Z,1.32
2018-11-29T05:30:37.333Z,1.41
2018-11-29T05:31:08.484Z,1.39
2018-11-29T05:31:39.600Z,1.42
2018-11-29T05:32:10.943Z,1.42
2018-11-29T05:32:42.065Z,1.41
2018-11-29T05:33:13.216Z,1.40
2018-11-29T05:33:44.387Z,1.44
2018-11-29T05:34:15.497Z,1.66
2018-11-29T05:34:46.604Z,1.74
2018-11-29T05:35:17.734Z,1.76
2018-11-29T05:35:48.892Z,1.90
2018-11-29T05:36:19.997Z,2.01
2018-11-29T05:36:51.126Z,2.09
2018-11-29T05:37:22.236Z,2.09
2018-11-29T05:37:53.341Z,2.05
2018-11-29T05:38:24.475Z,1.99
2018-11-29T05:38:55.641Z,1.94
2018-11-29T05:39:26.784Z,1.87
2018-11-29T05:39:57.900Z,1.85
2018-11-29T05:40:29.006Z,1.83
2018-11-29T05:41:00.171Z,1.83
2018-11-29T05:41:31.293Z,1.80
2018-11-29T05:42:02.423Z,1.74
2018-11-29T05:42:33.579Z,1.72
2018-11-29T05:43:04.708Z,1.70
2018-11-29T05:43:35.834Z,1.68
2018-11-29T05:44:06.966Z,1.65
2018-11-29T05:44:38.080Z,1.60
2018-11-29T05:45:09.198Z,1.59
2018-11-29T05:45:40.329Z,1.62
2018-11-29T05:46:11.493Z,1.59
2018-11-29T05:46:43.462Z,1.59
2018-11-29T05:47:14.593Z,1.60
2018-11-29T05:47:45.775Z,1.59
2018-11-29T05:48:17.226Z,1.57
2018-11-29T05:48:48.433Z,1.53
2018-11-29T05:49:25.876Z,1.54
2018-11-29T05:49:57.686Z,1.52
2018-11-29T05:50:28.849Z,1.60
2018-11-29T05:52:15.325Z,2.31
2018-11-29T05:53:23.560Z,2.20
2018-11-29T05:53:54.847Z,2.12
2018-11-29T05:54:28.320Z,2.05
2018-11-29T05:54:59.882Z,2.02
2018-11-29T05:55:32.026Z,1.93
2018-11-29T05:56:03.904Z,1.88
2018-11-29T05:57:15.128Z,1.79
2018-11-29T05:59:39.155Z,1.76
2018-11-29T06:00:10.501Z,1.73
2018-11-29T06:00:41.717Z,1.71
2018-11-29T06:01:12.850Z,1.66
2018-11-29T06:01:45.058Z,1.73
2018-11-29T06:02:17.190Z,1.93
2018-11-29T06:02:49.285Z,1.99
2018-11-29T06:03:23.038Z,1.95
2018-11-29T06:03:54.195Z,1.91
2018-11-29T06:04:26.823Z,1.86
2018-11-29T06:04:58.063Z,1.78
2018-11-29T06:05:31.218Z,1.72
2018-11-29T06:06:02.475Z,1.65
2018-11-29T06:06:33.642Z,1.60
2018-11-29T06:07:04.810Z,1.57
2018-11-29T06:07:36.063Z,1.52
2018-11-29T06:08:08.138Z,1.50
2018-11-29T06:08:40.589Z,1.50
2018-11-29T06:09:11.839Z,1.51
2018-11-29T06:09:45.669Z,1.50
2018-11-29T06:10:18.549Z,1.48
2018-11-29T06:10:50.556Z,1.43
2018-11-29T06:11:23.095Z,1.37
2018-11-29T06:11:54.354Z,1.37
2018-11-29T06:12:26.832Z,1.34
2018-11-29T06:12:58.657Z,1.29
2018-11-29T06:13:30.678Z,1.30
2018-11-29T06:14:02.171Z,1.30
2018-11-29T06:14:33.715Z,1.30
2018-11-29T06:15:05.638Z,1.31
2018-11-29T06:15:41.814Z,1.30
2018-11-29T06:16:13.779Z,1.29
2018-11-29T06:21:35.068Z,1.27
2018-11-29T06:22:07.079Z,1.23
2018-11-29T06:22:38.436Z,1.22
2018-11-29T06:23:09.910Z,1.20
2018-11-29T06:23:44.073Z,1.18
2018-11-29T06:24:55.177Z,1.16
2018-11-29T06:25:27.446Z,1.16
2018-11-29T06:26:01.614Z,1.17
2018-11-29T06:26:38.102Z,1.19
2018-11-29T06:27:10.131Z,1.18
2018-11-29T06:27:43.279Z,1.19
2018-11-29T06:28:51.754Z,1.19
2018-11-29T06:30:01.510Z,1.24
2018-11-29T06:30:36.011Z,1.24
2018-11-29T06:31:11.832Z,1.26
2018-11-29T06:31:44.611Z,1.24
2018-11-29T06:32:56.205Z,1.25
2018-11-29T06:33:27.591Z,1.24
2018-11-29T06:33:59.788Z,1.24
2018-11-29T06:35:13.605Z,1.19
2018-11-29T06:35:45.235Z,1.20
2018-11-29T06:36:52.544Z,1.23
2018-11-29T06:37:28.062Z,1.34
2018-11-29T06:38:45.504Z,1.38
2018-11-29T06:39:17.494Z,1.36
2018-11-29T06:39:52.590Z,1.33
2018-11-29T06:47:24.869Z,-1.28
2018-11-29T06:47:57.346Z,1.23
2018-11-29T06:48:29.582Z,1.25
2018-11-29T06:49:01.721Z,1.26
2018-11-29T06:53:15.455Z,1.28
2018-11-29T06:53:46.685Z,1.27
2018-11-29T06:54:18.238Z,1.29
2018-11-29T06:54:49.531Z,1.28
2018-11-29T06:55:20.721Z,1.28
2018-11-29T06:55:51.955Z,1.27
2018-11-29T06:56:23.206Z,1.21
2018-11-29T06:56:54.455Z,1.23
2018-11-29T06:57:25.671Z,1.28
2018-11-29T06:57:56.901Z,1.32
2018-11-29T06:58:28.074Z,1.32
2018-11-29T06:58:59.324Z,1.34
2018-11-29T06:59:30.550Z,1.34
2018-11-29T07:00:01.722Z,1.38
2018-11-29T07:00:33.933Z,1.35
2018-11-29T07:01:05.083Z,1.35
2018-11-29T07:01:36.313Z,1.36
2018-11-29T07:02:08.636Z,1.36
2018-11-29T07:02:39.895Z,1.37
2018-11-29T07:03:49.667Z,1.41
2018-11-29T07:05:45.198Z,1.38
2018-11-29T07:19:15.223Z,1.36
2018-11-29T07:19:47.463Z,1.34
2018-11-29T07:20:23.735Z,1.34
2018-11-29T07:20:55.086Z,1.35
2018-11-29T07:21:26.407Z,1.35
2018-11-29T07:21:58.184Z,1.37
2018-11-29T07:22:33.693Z,1.45
2018-11-29T07:23:10.183Z,1.47
2018-11-29T07:23:43.466Z,1.48
2018-11-29T07:25:40.310Z,1.49
2018-11-29T07:26:12.703Z,1.50
2018-11-29T07:26:46.996Z,1.51
2018-11-29T07:27:31.480Z,1.48
2018-11-29T07:28:11.208Z,1.43
2018-11-29T07:28:45.212Z,1.43
2018-11-29T07:30:09.559Z,1.81
2018-11-29T07:54:12.649Z,1.91
2018-11-29T07:54:43.754Z,1.87
2018-11-29T07:55:14.898Z,1.90
2018-11-29T07:55:46.020Z,1.85
2018-11-29T07:56:17.169Z,1.77
2018-11-29T07:56:48.546Z,1.74
2018-11-29T07:57:21.986Z,1.75
2018-11-29T07:57:53.174Z,1.73
2018-11-29T07:58:24.401Z,1.72
2018-11-29T07:58:55.609Z,1.67
2018-11-29T07:59:27.689Z,1.65
2018-11-29T07:59:58.920Z,1.65
2018-11-29T08:00:30.685Z,1.65
2018-11-29T08:01:05.373Z,1.63
2018-11-29T08:01:37.636Z,1.67
2018-11-29T08:02:09.055Z,1.70
2018-11-29T08:02:40.359Z,1.77